createdAt,value
2019-05-25T00:00:21.333Z,64.20
2019-05-25T00:02:50.737Z,64.30
2019-05-25T00:05:20.217Z,64.30
2019-05-25T00:07:49.541Z,64.30
2019-05-25T00:10:18.868Z,65.00
2019-05-25T00:12:48.213Z,64.40
2019-05-25T00:15:17.494Z,64.40
2019-05-25T00:17:46.713Z,64.50
2019-05-25T00:20:15.943Z,64.60
2019-05-25T00:22:45.222Z,64.70
2019-05-25T00:25:14.429Z,64.70
2019-05-25T00:27:43.607Z,64.70
2019-05-25T00:30:12.801Z,64.60
2019-05-25T00:32:41.978Z,64.80
2019-05-25T00:35:11.341Z,64.60
2019-05-25T00:37:40.527Z,64.70
2019-05-25T00:40:10.024Z,64.50
2019-05-25T00:42:39.266Z,64.60
2019-05-25T00:45:08.618Z,64.60
2019-05-25T00:47:37.968Z,64.60
2019-05-25T00:50:07.763Z,64.60
2019-05-25T00:52:37.003Z,64.60
2019-05-25T00:55:06.770Z,64.70
2019-05-25T00:57:36.079Z,64.60
2019-05-25T01:00:06.162Z,64.70
2019-05-25T01:02:35.510Z,64.80
2019-05-25T01:05:05.335Z,64.70
2019-05-25T01:07:34.510Z,65.50
2019-05-25T01:10:03.786Z,64.70
2019-05-25T01:12:33.001Z,64.70
2019-05-25T01:15:02.612Z,64.70
2019-05-25T01:17:31.842Z,64.70
2019-05-25T01:20:01.040Z,64.80
2019-05-25T01:22:30.304Z,64.70
2019-05-25T01:24:59.605Z,64.70
2019-05-25T01:27:28.896Z,64.70
2019-05-25T01:29:58.223Z,64.90
2019-05-25T01:32:27.481Z,64.80
2019-05-25T01:34:56.839Z,64.90
2019-05-25T01:37:26.023Z,65.00
2019-05-25T01:39:55.322Z,64.90
2019-05-25T01:42:24.578Z,65.10
2019-05-25T01:44:53.783Z,65.00
2019-05-25T01:47:23.070Z,65.00
2019-05-25T01:49:53.243Z,65.20
2019-05-25T01:52:22.583Z,65.40
2019-05-25T01:54:59.978Z,65.40
2019-05-25T01:57:22.825Z,65.40
2019-05-25T01:59:52.412Z,65.40
2019-05-25T02:02:21.599Z,65.40
2019-05-25T02:04:50.899Z,65.50
2019-05-25T02:07:20.187Z,65.50
2019-05-25T02:09:49.547Z,65.60
2019-05-25T02:12:18.757Z,65.70
2019-05-25T02:14:48.699Z,65.70
2019-05-25T02:17:18.020Z,66.60
2019-05-25T02:19:47.246Z,65.90
2019-05-25T02:22:16.536Z,66.00
2019-05-25T02:24:45.772Z,66.10
2019-05-25T02:27:15.047Z,66.20
2019-05-25T02:29:44.330Z,66.30
2019-05-25T02:32:13.491Z,66.40
2019-05-25T02:34:42.711Z,66.40
2019-05-25T02:37:12.034Z,66.30
2019-05-25T02:39:41.309Z,66.30
2019-05-25T02:42:12.048Z,66.40
2019-05-25T02:44:41.213Z,66.30
2019-05-25T02:47:10.532Z,66.50
2019-05-25T02:49:39.716Z,66.30
2019-05-25T02:52:10.238Z,66.30
2019-05-25T02:54:39.462Z,66.30
2019-05-25T02:57:08.663Z,66.40
2019-05-25T02:59:37.968Z,65.80
2019-05-25T03:02:08.075Z,66.40
2019-05-25T03:04:37.320Z,66.40
2019-05-25T03:07:07.078Z,66.40
2019-05-25T03:09:38.698Z,66.50
2019-05-25T03:12:08.054Z,66.60
2019-05-25T03:14:37.230Z,66.70
2019-05-25T03:20:34.394Z,66.70
2019-05-25T03:23:03.571Z,66.40
2019-05-25T03:25:46.815Z,66.60
2019-05-25T03:28:03.778Z,66.70
2019-05-25T03:31:11.481Z,66.80
2019-05-25T03:33:40.783Z,66.90
2019-05-25T03:36:10.081Z,67.00
2019-05-25T03:38:39.333Z,67.10
2019-05-25T03:41:08.568Z,67.30
2019-05-25T03:43:37.739Z,67.40
2019-05-25T03:46:06.939Z,67.50
2019-05-25T03:48:36.141Z,67.60
2019-05-25T03:51:07.235Z,67.70
2019-05-25T03:53:36.349Z,67.80
2019-05-25T03:56:06.513Z,68.00
2019-05-25T03:58:36.033Z,68.00
2019-05-25T04:01:05.336Z,68.20
2019-05-25T04:03:34.496Z,68.30
2019-05-25T04:06:03.739Z,68.30
2019-05-25T04:08:33.383Z,68.40
2019-05-25T04:11:02.684Z,68.40
2019-05-25T04:13:31.837Z,68.60
2019-05-25T04:16:02.186Z,68.60
2019-05-25T04:18:32.538Z,68.50
2019-05-25T04:21:01.808Z,68.60
2019-05-25T04:23:31.132Z,68.60
2019-05-25T04:26:00.473Z,68.50
2019-05-25T04:28:29.799Z,68.60
2019-05-25T04:30:59.356Z,68.50
2019-05-25T04:33:28.585Z,68.50
2019-05-25T04:35:58.012Z,68.50
2019-05-25T04:38:27.323Z,68.40
2019-05-25T04:40:57.107Z,68.40
2019-05-25T04:43:26.382Z,68.40
2019-05-25T04:45:55.642Z,68.20
2019-05-25T04:48:24.989Z,68.30
2019-05-25T04:50:54.157Z,68.30
2019-05-25T04:53:23.424Z,68.30
2019-05-25T04:55:52.609Z,68.30
2019-05-25T04:58:22.067Z,68.30
2019-05-25T05:00:53.626Z,69.10
2019-05-25T05:03:23.051Z,68.20
2019-05-25T05:05:52.379Z,67.90
2019-05-25T05:08:21.579Z,67.80
2019-05-25T05:10:50.894Z,67.70
2019-05-25T05:13:20.111Z,67.60
2019-05-25T05:15:49.488Z,67.40
2019-05-25T05:18:18.827Z,67.40
2019-05-25T05:20:48.024Z,67.30
2019-05-25T05:23:17.354Z,67.00
2019-05-25T05:25:46.522Z,67.00
2019-05-25T05:28:15.792Z,66.80
2019-05-25T05:30:45.027Z,66.60
2019-05-25T05:33:14.350Z,66.50
2019-05-25T05:35:43.668Z,66.30
2019-05-25T05:38:13.063Z,66.40
2019-05-25T05:40:43.586Z,66.10
2019-05-25T05:43:13.011Z,65.90
2019-05-25T05:45:47.103Z,65.90
2019-05-25T05:48:18.469Z,65.70
2019-05-25T05:50:53.058Z,65.60
2019-05-25T05:53:24.662Z,65.50
2019-05-25T05:55:54.040Z,65.30
2019-05-25T05:58:23.663Z,65.30
2019-05-25T06:00:53.020Z,65.10
2019-05-25T06:03:22.391Z,65.00
2019-05-25T06:05:51.591Z,64.70
2019-05-25T06:08:20.987Z,64.60
2019-05-25T06:10:50.281Z,64.50
2019-05-25T06:13:21.939Z,64.60
2019-05-25T06:15:55.701Z,64.30
2019-05-25T06:18:23.297Z,64.30
2019-05-25T06:20:52.613Z,64.00
2019-05-25T06:23:21.985Z,64.20
2019-05-25T06:25:51.258Z,64.00
2019-05-25T06:28:22.505Z,63.80
2019-05-25T06:30:51.828Z,63.60
2019-05-25T06:33:21.101Z,63.60
2019-05-25T06:35:50.325Z,63.20
2019-05-25T06:38:19.548Z,62.40
2019-05-25T06:40:54.845Z,61.70
2019-05-25T06:43:25.082Z,60.70
2019-05-25T06:45:55.301Z,60.00
2019-05-25T06:48:24.619Z,59.60
2019-05-25T06:50:53.939Z,58.90
2019-05-25T06:53:23.279Z,59.30
2019-05-25T06:55:52.595Z,58.30
2019-05-25T06:58:21.825Z,58.00
2019-05-25T07:00:52.137Z,57.90
2019-05-25T07:03:21.347Z,57.70
2019-05-25T07:05:50.635Z,57.80
2019-05-25T07:08:19.963Z,57.60
2019-05-25T07:10:49.952Z,57.60
2019-05-25T07:13:19.365Z,57.90
2019-05-25T07:15:48.689Z,56.90
2019-05-25T07:18:17.905Z,56.40
2019-05-25T07:20:47.199Z,56.20
2019-05-25T07:23:16.492Z,55.90
2019-05-25T07:25:46.872Z,55.60
2019-05-25T07:28:16.217Z,55.60
2019-05-25T07:30:46.675Z,54.90
2019-05-25T07:33:16.134Z,54.50
2019-05-25T07:35:51.374Z,54.00
2019-05-25T07:38:20.571Z,53.80
2019-05-25T07:40:53.024Z,53.70
2019-05-25T07:43:22.322Z,53.90
2019-05-25T07:45:52.795Z,54.00
2019-05-25T07:48:22.118Z,54.20
2019-05-25T07:50:52.580Z,54.00
2019-05-25T07:53:21.880Z,53.20
2019-05-25T07:55:51.148Z,53.20
2019-05-25T07:58:20.438Z,52.40
2019-05-25T08:00:49.628Z,52.30
2019-05-25T08:03:18.807Z,52.30
2019-05-25T08:05:48.104Z,52.70
2019-05-25T08:08:17.401Z,51.90
2019-05-25T08:10:46.674Z,51.80
2019-05-25T08:13:15.881Z,52.00
2019-05-25T08:15:45.328Z,51.90
2019-05-25T08:18:14.646Z,52.20
2019-05-25T08:20:47.038Z,52.50
2019-05-25T08:23:14.843Z,52.60
2019-05-25T08:25:44.273Z,52.80
2019-05-25T08:28:29.895Z,52.90
2019-05-25T08:30:46.850Z,53.00
2019-05-25T08:33:16.080Z,53.00
2019-05-25T08:35:46.513Z,53.20
2019-05-25T08:38:15.857Z,53.00
2019-05-25T08:40:45.202Z,53.00
2019-05-25T08:43:14.505Z,53.30
2019-05-25T08:45:43.755Z,52.60
2019-05-25T08:48:12.904Z,52.30
2019-05-25T08:50:42.283Z,52.20
2019-05-25T08:53:11.691Z,52.00
2019-05-25T08:55:41.182Z,51.60
2019-05-25T08:58:10.773Z,51.20
2019-05-25T09:00:40.196Z,51.00
2019-05-25T09:03:11.564Z,50.30
2019-05-25T09:05:41.970Z,50.50
2019-05-25T09:08:11.248Z,50.50
2019-05-25T09:10:41.042Z,50.30
2019-05-25T09:13:11.825Z,50.50
2019-05-25T09:15:41.129Z,50.30
2019-05-25T09:18:10.488Z,50.40
2019-05-25T09:20:42.321Z,50.90
2019-05-25T09:23:11.691Z,51.20
2019-05-25T09:25:41.204Z,51.40
2019-05-25T09:28:17.518Z,51.60
2019-05-25T09:30:46.897Z,51.60
2019-05-25T09:33:16.135Z,51.90
2019-05-25T09:35:45.670Z,52.00
2019-05-25T09:38:14.912Z,52.10
2019-05-25T09:40:44.683Z,52.00
2019-05-25T09:43:14.068Z,51.80
2019-05-25T09:45:43.420Z,51.40
2019-05-25T09:48:12.748Z,51.40
2019-05-25T09:50:42.052Z,51.00
2019-05-25T09:53:11.330Z,50.70
2019-05-25T09:55:40.646Z,50.50
2019-05-25T09:58:10.000Z,50.40
2019-05-25T10:00:40.426Z,50.60
2019-05-25T10:03:10.992Z,50.90
2019-05-25T10:05:40.386Z,50.70
2019-05-25T10:08:09.570Z,51.10
2019-05-25T10:10:38.918Z,50.40
2019-05-25T10:13:10.338Z,50.20
2019-05-25T10:15:39.372Z,50.20
2019-05-25T10:18:08.762Z,50.10
2019-05-25T10:20:38.110Z,50.20
2019-05-25T10:23:07.340Z,50.20
2019-05-25T10:25:36.711Z,50.10
2019-05-25T10:28:06.117Z,50.00
2019-05-25T10:30:35.454Z,49.90
2019-05-25T10:33:04.749Z,49.70
2019-05-25T10:35:34.003Z,49.40
2019-05-25T10:38:03.322Z,49.50
2019-05-25T10:40:32.693Z,49.40
2019-05-25T10:43:02.078Z,49.10
2019-05-25T10:45:31.391Z,48.70
2019-05-25T10:48:00.693Z,48.20
2019-05-25T10:50:29.915Z,48.30
2019-05-25T10:52:59.257Z,48.10
2019-05-25T10:55:28.551Z,48.20
2019-05-25T10:57:57.799Z,48.00
2019-05-25T11:00:27.940Z,48.30
2019-05-25T11:02:57.352Z,48.50
2019-05-25T11:05:26.628Z,48.30
2019-05-25T11:07:56.051Z,48.20
2019-05-25T11:10:25.389Z,48.20
2019-05-25T11:12:54.653Z,48.10
2019-05-25T11:15:23.857Z,47.80
2019-05-25T11:17:53.132Z,47.90
2019-05-25T11:20:22.667Z,47.90
2019-05-25T11:22:51.860Z,47.90
2019-05-25T11:25:21.343Z,47.70
2019-05-25T11:27:50.765Z,48.50
2019-05-25T11:30:21.358Z,48.30
2019-05-25T11:32:50.704Z,47.70
2019-05-25T11:35:20.392Z,47.20
2019-05-25T11:37:49.669Z,46.90
2019-05-25T11:40:21.144Z,46.80
2019-05-25T11:42:50.369Z,46.50
2019-05-25T11:45:20.048Z,46.40
2019-05-25T11:47:49.336Z,46.70
2019-05-25T11:50:18.898Z,46.30
2019-05-25T11:52:48.166Z,45.90
2019-05-25T11:55:17.482Z,45.70
2019-05-25T11:57:46.760Z,45.50
2019-05-25T12:00:24.957Z,45.60
2019-05-25T12:02:48.870Z,44.80
2019-05-25T12:05:18.151Z,44.40
2019-05-25T12:07:47.469Z,44.20
2019-05-25T12:10:17.180Z,44.70
2019-05-25T12:12:46.391Z,43.70
2019-05-25T12:15:15.892Z,42.70
2019-05-25T12:17:45.087Z,43.00
2019-05-25T12:20:15.201Z,43.10
2019-05-25T12:22:44.496Z,43.40
2019-05-25T12:25:13.836Z,43.70
2019-05-25T12:27:43.354Z,43.90
2019-05-25T12:30:13.127Z,44.50
2019-05-25T12:32:42.500Z,45.60
2019-05-25T12:35:12.318Z,45.50
2019-05-25T12:37:41.510Z,45.70
2019-05-25T12:40:11.044Z,45.80
2019-05-25T12:42:40.237Z,45.60
2019-05-25T12:45:10.709Z,45.70
2019-05-25T12:47:39.931Z,45.70
2019-05-25T12:50:09.703Z,45.80
2019-05-25T12:52:38.985Z,46.00
2019-05-25T12:55:08.561Z,46.30
2019-05-25T12:57:37.727Z,46.50
2019-05-25T13:00:15.696Z,46.50
2019-05-25T13:02:38.472Z,46.30
2019-05-25T13:05:07.974Z,45.80
2019-05-25T13:07:37.251Z,46.30
2019-05-25T13:10:06.673Z,45.90
2019-05-25T13:12:35.859Z,46.20
2019-05-25T13:15:05.990Z,45.80
2019-05-25T13:17:35.388Z,45.20
2019-05-25T13:20:05.308Z,44.50
2019-05-25T13:22:34.670Z,43.30
2019-05-25T13:25:04.420Z,42.20
2019-05-25T13:27:33.759Z,40.70
2019-05-25T13:30:03.597Z,39.30
2019-05-25T13:32:33.017Z,38.60
2019-05-25T13:35:02.392Z,38.20
2019-05-25T13:37:31.750Z,38.00
2019-05-25T13:40:01.052Z,37.30
2019-05-25T13:42:30.326Z,36.60
2019-05-25T13:44:59.552Z,36.80
2019-05-25T13:47:28.800Z,37.10
2019-05-25T13:49:58.006Z,37.10
2019-05-25T13:52:28.448Z,37.40
2019-05-25T13:54:57.752Z,37.50
2019-05-25T13:57:27.022Z,37.20
2019-05-25T13:59:56.362Z,37.20
2019-05-25T14:02:26.711Z,37.40
2019-05-25T14:04:55.997Z,37.10
2019-05-25T14:07:25.306Z,36.90
2019-05-25T14:09:54.660Z,36.70
2019-05-25T14:12:25.889Z,36.50
2019-05-25T14:14:55.163Z,36.30
2019-05-25T14:17:24.496Z,36.10
2019-05-25T14:19:53.808Z,35.90
2019-05-25T14:22:23.640Z,36.00
2019-05-25T14:24:53.024Z,36.20
2019-05-25T14:27:22.232Z,36.80
2019-05-25T14:29:51.514Z,37.20
2019-05-25T14:32:20.740Z,37.40
2019-05-25T14:34:50.932Z,37.70
2019-05-25T14:37:21.253Z,38.20
2019-05-25T14:39:51.485Z,38.50
2019-05-25T14:42:21.001Z,39.10
2019-05-25T14:44:50.287Z,39.40
2019-05-25T14:47:20.656Z,39.70
2019-05-25T14:56:50.188Z,41.60
2019-05-25T14:59:26.811Z,41.90
2019-05-25T15:02:06.558Z,42.50
2019-05-25T15:04:36.402Z,42.20
2019-05-25T15:07:20.947Z,41.70
2019-05-25T15:10:09.190Z,41.20
2019-05-25T15:13:09.285Z,41.20
2019-05-25T15:19:18.208Z,41.20
2019-05-25T15:21:47.192Z,40.40
2019-05-25T15:24:17.873Z,40.10
2019-05-25T15:26:47.383Z,39.80
2019-05-25T15:29:16.658Z,39.60
2019-05-25T15:31:46.958Z,39.60
2019-05-25T15:34:16.355Z,39.30
2019-05-25T15:36:46.013Z,38.90
2019-05-25T15:39:15.371Z,38.80
2019-05-25T15:41:44.714Z,38.50
2019-05-25T15:44:14.026Z,38.30
2019-05-25T15:46:43.358Z,38.00
2019-05-25T15:49:12.887Z,37.70
2019-05-25T15:51:42.263Z,37.60
2019-05-25T15:54:11.544Z,37.60
2019-05-25T15:56:41.055Z,38.00
2019-05-25T15:59:13.511Z,38.10
2019-05-25T16:01:42.914Z,38.30
2019-05-25T16:04:12.270Z,38.20
2019-05-25T16:06:41.600Z,37.90
2019-05-25T16:09:10.924Z,37.90
2019-05-25T16:11:40.279Z,38.10
2019-05-25T16:14:09.586Z,38.60
2019-05-25T16:16:38.984Z,38.50
2019-05-25T16:19:08.404Z,38.50
2019-05-25T16:21:37.630Z,38.30
2019-05-25T16:24:08.143Z,38.60
2019-05-25T16:26:46.077Z,39.10
2019-05-25T16:29:10.027Z,39.40
2019-05-25T16:31:39.443Z,39.40
2019-05-25T16:34:09.852Z,39.20
2019-05-25T16:36:39.062Z,39.40
2019-05-25T16:39:11.051Z,39.50
2019-05-25T16:41:40.342Z,39.00
2019-05-25T16:44:09.738Z,38.60
2019-05-25T16:46:39.061Z,38.90
2019-05-25T16:49:10.262Z,39.00
2019-05-25T16:51:39.753Z,39.20
2019-05-25T16:54:09.160Z,39.20
2019-05-25T16:56:38.460Z,39.80
2019-05-25T16:59:07.787Z,40.20
2019-05-25T17:01:47.980Z,40.60
2019-05-25T17:04:10.069Z,40.80
2019-05-25T17:06:41.607Z,40.80
2019-05-25T17:09:12.490Z,40.80
2019-05-25T17:11:42.045Z,40.70
2019-05-25T17:14:11.482Z,40.60
2019-05-25T17:16:40.654Z,40.60
2019-05-25T17:19:10.262Z,40.80
2019-05-25T17:21:39.499Z,40.60
2019-05-25T17:24:08.668Z,40.10
2019-05-25T17:26:37.864Z,40.10
2019-05-25T17:29:07.035Z,40.10
2019-05-25T17:31:36.307Z,40.10
2019-05-25T17:34:05.559Z,40.10
2019-05-25T17:36:34.819Z,40.20
2019-05-25T17:39:05.869Z,40.20
2019-05-25T17:41:35.138Z,40.20
2019-05-25T17:44:04.429Z,40.20
2019-05-25T17:46:33.608Z,40.20
2019-05-25T17:49:02.898Z,39.90
2019-05-25T17:51:32.243Z,39.80
2019-05-25T17:54:01.524Z,39.90
2019-05-25T17:56:30.772Z,39.70
2019-05-25T17:59:00.049Z,40.00
2019-05-25T18:01:29.339Z,40.20
2019-05-25T18:04:06.591Z,40.70
2019-05-25T18:06:29.624Z,41.20
2019-05-25T18:09:01.247Z,41.70
2019-05-25T18:11:30.626Z,42.20
2019-05-25T18:13:59.995Z,42.60
2019-05-25T18:16:30.784Z,43.00
2019-05-25T18:19:00.002Z,43.40
2019-05-25T18:21:29.277Z,43.70
2019-05-25T18:23:58.473Z,43.90
2019-05-25T18:26:27.856Z,44.20
2019-05-25T18:28:58.258Z,44.40
2019-05-25T18:31:27.595Z,44.60
2019-05-25T18:33:56.830Z,44.90
2019-05-25T18:36:26.070Z,45.10
2019-05-25T18:38:56.095Z,45.10
2019-05-25T18:41:25.451Z,45.30
2019-05-25T18:43:54.669Z,45.50
2019-05-25T18:46:23.858Z,45.40
2019-05-25T18:48:53.256Z,45.50
2019-05-25T18:51:22.427Z,46.00
2019-05-25T18:53:51.782Z,46.20
2019-05-25T18:56:21.011Z,46.10
2019-05-25T18:58:50.333Z,46.30
2019-05-25T19:01:19.592Z,46.20
2019-05-25T19:03:48.805Z,46.20
2019-05-25T19:06:18.158Z,46.30
2019-05-25T19:08:47.539Z,46.50
2019-05-25T19:11:16.737Z,46.60
2019-05-25T19:13:46.009Z,46.90
2019-05-25T19:16:15.379Z,47.00
2019-05-25T19:19:27.194Z,47.30
2019-05-25T19:21:56.600Z,47.50
2019-05-25T19:24:25.810Z,47.70
2019-05-25T19:26:55.143Z,48.10
2019-05-25T19:29:24.479Z,48.40
2019-05-25T19:31:53.764Z,48.70
2019-05-25T19:34:29.869Z,48.90
2019-05-25T19:37:03.616Z,49.20
2019-05-25T19:39:30.319Z,49.40
2019-05-25T19:41:59.568Z,49.70
2019-05-25T19:44:28.839Z,50.10
2019-05-25T19:46:58.169Z,50.30
2019-05-25T19:49:27.575Z,50.50
2019-05-25T19:51:56.977Z,50.90
2019-05-25T19:54:26.282Z,51.00
2019-05-25T19:56:55.569Z,51.30
2019-05-25T19:59:24.825Z,51.60
2019-05-25T20:01:54.024Z,51.80
2019-05-25T20:04:23.425Z,52.00
2019-05-25T20:06:52.628Z,52.30
2019-05-25T20:09:21.903Z,52.50
2019-05-25T20:11:51.239Z,52.70
2019-05-25T20:14:20.611Z,52.90
2019-05-25T20:16:49.997Z,53.10
2019-05-25T20:19:20.228Z,53.20
2019-05-25T20:21:49.414Z,53.40
2019-05-25T20:24:18.661Z,53.60
2019-05-25T20:26:47.962Z,53.80
2019-05-25T20:29:17.314Z,53.90
2019-05-25T20:31:46.636Z,54.00
2019-05-25T20:34:15.856Z,54.20
2019-05-25T20:36:45.168Z,54.20
2019-05-25T20:39:14.431Z,54.50
2019-05-25T20:41:43.641Z,54.50
2019-05-25T20:44:12.915Z,54.70
2019-05-25T20:46:42.292Z,54.80
2019-05-25T20:49:11.641Z,55.00
2019-05-25T20:51:40.873Z,55.00
2019-05-25T20:54:16.902Z,55.10
2019-05-25T20:56:46.119Z,55.30
2019-05-25T20:59:15.428Z,55.40
2019-05-25T21:01:44.752Z,55.50
2019-05-25T21:04:14.126Z,55.60
2019-05-25T21:06:43.546Z,55.80
2019-05-25T21:09:12.806Z,55.90
2019-05-25T21:11:42.105Z,56.10
2019-05-25T21:14:11.364Z,56.20
2019-05-25T21:16:40.628Z,56.40
2019-05-25T21:19:09.942Z,56.40
2019-05-25T21:21:39.169Z,56.60
2019-05-25T21:24:10.040Z,56.70
2019-05-25T21:26:39.442Z,56.80
2019-05-25T21:29:08.715Z,57.00
2019-05-25T21:31:38.030Z,57.20
2019-05-25T21:34:07.331Z,57.30
2019-05-25T21:36:38.949Z,57.30
2019-05-25T21:39:08.287Z,57.40
2019-05-25T21:41:37.629Z,57.40
2019-05-25T21:44:06.866Z,57.50
2019-05-25T21:46:36.055Z,57.50
2019-05-25T21:49:05.182Z,57.50
2019-05-25T21:54:38.690Z,57.50
2019-05-25T21:57:07.907Z,57.40
2019-05-25T21:59:37.050Z,57.60
2019-05-25T22:02:06.274Z,57.60
2019-05-25T22:04:35.497Z,57.70
2019-05-25T22:07:05.153Z,57.70
2019-05-25T22:09:34.542Z,57.90
2019-05-25T22:12:03.875Z,57.80
2019-05-25T22:14:33.090Z,57.90
2019-05-25T22:17:02.382Z,58.00
2019-05-25T22:19:31.784Z,58.10
2019-05-25T22:22:01.086Z,58.20
2019-05-25T22:24:30.239Z,58.20
2019-05-25T22:26:59.543Z,58.20
2019-05-25T22:29:28.825Z,58.30
2019-05-25T22:31:58.115Z,58.40
2019-05-25T22:34:27.977Z,58.50
2019-05-25T22:36:57.177Z,58.60
2019-05-25T22:39:28.617Z,58.70
2019-05-25T22:41:57.799Z,58.80
2019-05-25T22:44:27.276Z,58.80
2019-05-25T22:46:56.776Z,58.90
2019-05-25T22:49:25.930Z,58.80
2019-05-25T22:51:55.138Z,59.00
2019-05-25T22:54:24.327Z,58.90
2019-05-25T22:56:53.528Z,59.00
2019-05-25T22:59:22.742Z,59.00
2019-05-25T23:01:52.007Z,59.00
2019-05-25T23:04:21.202Z,59.00
2019-05-25T23:06:57.966Z,59.10
2019-05-25T23:09:21.287Z,59.10
2019-05-25T23:11:51.542Z,59.10
2019-05-25T23:14:20.819Z,59.10
2019-05-25T23:16:50.051Z,59.20
2019-05-25T23:19:19.297Z,59.30
2019-05-25T23:21:48.586Z,59.40
2019-05-25T23:24:17.822Z,59.50
2019-05-25T23:26:47.014Z,59.50
2019-05-25T23:29:16.279Z,59.50
2019-05-25T23:31:45.441Z,59.50
2019-05-25T23:34:14.582Z,59.50
2019-05-25T23:36:43.855Z,59.50
2019-05-25T23:39:13.052Z,59.50
2019-05-25T23:41:44.411Z,59.50
2019-05-25T23:44:13.734Z,59.50
2019-05-25T23:46:43.031Z,59.50
